Poplar, Montana
Current Conditions -  °F | °C
As of 2:53 AM on Tuesday 21 Oct 2014 (Local Time) from KOLF Reporting Station
Clear Clear  
Wind Chill: 36°   Ceiling: Unl
Heat Index: 39°   Visibility: 10mi
Dew Point: 35°   Wind: 5mph
Humidity: 86%   Direction: 80°E
Pressure: 29.74"   Gusts: NA
Location:  48.11°N, 105.2°W
Report Text: KOLF 210853Z AUTO 08004KT 10SM CLR 04/02 A2974 RMK AO2 SLP072 T00390017 56004
Loading
Personal Weather Stations






























Interactive Weather Map
Tropical Storm Tracking
New forecast layout! Learn more

10-Day Weather Forecast

Advertisements
Track Severe Weather on mobile